Hovedside
METAR-TAF:

METAR-TAF

Lufthavner :

Fua'amotu internasjonale lufthavn

Tongatapu, Tonga

breddegrad: 21-14S, lengdegrad: 175-09W, høyde over havet: 38 m

Gjeldene værobservasjon

Denne rapporten ble laget for 33 minutter siden, klokken 03:00 UTC
Vind 8 kt fra Sørøst
Temperatur 25°C
Luftfuktighet 69%
Trykk 1012 hPa
Sikt 10 km eller mer
Få skyer i en høyde av 900 ft
Spredte skyer i en høyde av 1600 ft, Tårnskyer (cumulus).
Brutte skyer i en høyde av 4000 ft

METAR: NFTF 170300Z 14008KT 9999 FEW009 SCT016TCU BKN040 25/19 Q1012

Tid: 16:33 (03:33 UTC)

Varsel

Denne rapporten ble laget for 4 timer og 21 minutter siden, klokken 23:12 UTC
Varsel gyldig fra 17. klokken 00 UTC til 17. klokken 24 UTC
Vind 8 kt fra Sørøst
Sikt 10 km eller mer
Få skyer i en høyde av 900 ft
Spredte skyer i en høyde av 1800 ft

TAF: NFTF 162312Z 1700/1724 13008KT 9999 FEW009 SCT018

Værobservasjoner og værvarsel for over 4000 flyplasser (METAR- og TAF-rapporter).

Tilgjengelige stasjoner er representert av de røde og gule prikkene på kartet.

Hold musepekeren over prikken for å se navnet på stasjonen.

Klikk så for å se værobservasjoner og -varsler.

For å forandre kartet kan du klikke på den grønne knappen med svart kryss for å zoome inn, på den grønne knappen med strek for å zoome ut, eller på de grønne pilene for å se tilstøtende kart.


METAR-TAF: